sensor_id;sensor_type;location;lat;lon;timestamp;P1;durP1;ratioP1;P2;durP2;ratioP2
79539;SDS011;68991;52.122;5.406;2023-06-26T00:00:49;6.97;;;3.95;;
79539;SDS011;68991;52.122;5.406;2023-06-26T00:03:15;5.18;;;4.68;;
79539;SDS011;68991;52.122;5.406;2023-06-26T00:05:42;5.45;;;4.75;;
79539;SDS011;68991;52.122;5.406;2023-06-26T00:08:08;6.28;;;4.95;;
79539;SDS011;68991;52.122;5.406;2023-06-26T00:10:35;6.55;;;4.80;;
79539;SDS011;68991;52.122;5.406;2023-06-26T00:13:02;6.53;;;5.40;;
79539;SDS011;68991;52.122;5.406;2023-06-26T00:15:29;6.47;;;4.82;;
79539;SDS011;68991;52.122;5.406;2023-06-26T00:17:58;5.97;;;4.57;;
79539;SDS011;68991;52.122;5.406;2023-06-26T00:20:25;5.38;;;4.85;;
79539;SDS011;68991;52.122;5.406;2023-06-26T00:22:51;5.97;;;4.28;;
79539;SDS011;68991;52.122;5.406;2023-06-26T00:25:19;6.35;;;5.15;;
79539;SDS011;68991;52.122;5.406;2023-06-26T00:27:46;6.20;;;4.90;;
79539;SDS011;68991;52.122;5.406;2023-06-26T00:30:13;6.55;;;4.75;;
79539;SDS011;68991;52.122;5.406;2023-06-26T00:32:39;5.43;;;4.47;;
79539;SDS011;68991;52.122;5.406;2023-06-26T00:35:06;6.38;;;4.57;;
79539;SDS011;68991;52.122;5.406;2023-06-26T00:37:32;5.13;;;4.63;;
79539;SDS011;68991;52.122;5.406;2023-06-26T00:39:59;6.93;;;4.90;;
79539;SDS011;68991;52.122;5.406;2023-06-26T00:42:25;5.20;;;4.53;;
79539;SDS011;68991;52.122;5.406;2023-06-26T00:44:52;5.53;;;4.95;;
79539;SDS011;68991;52.122;5.406;2023-06-26T00:47:18;5.68;;;4.82;;
79539;SDS011;68991;52.122;5.406;2023-06-26T00:49:45;5.50;;;4.75;;
79539;SDS011;68991;52.122;5.406;2023-06-26T00:52:12;5.75;;;4.75;;
79539;SDS011;68991;52.122;5.406;2023-06-26T00:54:38;6.32;;;5.00;;
79539;SDS011;68991;52.122;5.406;2023-06-26T00:57:05;6.22;;;4.90;;
79539;SDS011;68991;52.122;5.406;2023-06-26T00:59:32;7.32;;;5.38;;
79539;SDS011;68991;52.122;5.406;2023-06-26T01:01:59;6.35;;;5.05;;
79539;SDS011;68991;52.122;5.406;2023-06-26T01:04:25;5.40;;;4.63;;
79539;SDS011;68991;52.122;5.406;2023-06-26T01:06:53;7.13;;;4.85;;
79539;SDS011;68991;52.122;5.406;2023-06-26T01:09:21;5.22;;;4.47;;
79539;SDS011;68991;52.122;5.406;2023-06-26T01:11:48;5.22;;;4.72;;
79539;SDS011;68991;52.122;5.406;2023-06-26T01:14:15;6.80;;;4.95;;
79539;SDS011;68991;52.122;5.406;2023-06-26T01:16:41;5.13;;;4.60;;
79539;SDS011;68991;52.122;5.406;2023-06-26T01:19:17;5.90;;;4.70;;
79539;SDS011;68991;52.122;5.406;2023-06-26T01:21:52;5.75;;;5.15;;
79539;SDS011;68991;52.122;5.406;2023-06-26T01:24:29;6.30;;;4.65;;
79539;SDS011;68991;52.122;5.406;2023-06-26T01:26:59;4.97;;;4.30;;
79539;SDS011;68991;52.122;5.406;2023-06-26T01:29:30;5.28;;;4.32;;
79539;SDS011;68991;52.122;5.406;2023-06-26T01:31:59;6.13;;;4.47;;
79539;SDS011;68991;52.122;5.406;2023-06-26T01:34:26;5.38;;;4.68;;
79539;SDS011;68991;52.122;5.406;2023-06-26T01:36:53;5.13;;;4.65;;
79539;SDS011;68991;52.122;5.406;2023-06-26T01:39:19;5.30;;;4.63;;
79539;SDS011;68991;52.122;5.406;2023-06-26T01:41:46;5.05;;;4.38;;
79539;SDS011;68991;52.122;5.406;2023-06-26T01:47:02;5.63;;;4.57;;
79539;SDS011;68991;52.122;5.406;2023-06-26T01:52:06;4.85;;;4.18;;
79539;SDS011;68991;52.122;5.406;2023-06-26T01:54:41;5.68;;;4.88;;
79539;SDS011;68991;52.122;5.406;2023-06-26T01:57:17;5.47;;;4.80;;
79539;SDS011;68991;52.122;5.406;2023-06-26T01:59:45;5.30;;;4.70;;
79539;SDS011;68991;52.122;5.406;2023-06-26T02:02:13;4.85;;;4.03;;
79539;SDS011;68991;52.122;5.406;2023-06-26T02:04:40;5.18;;;4.60;;
79539;SDS011;68991;52.122;5.406;2023-06-26T02:07:07;5.90;;;4.80;;
79539;SDS011;68991;52.122;5.406;2023-06-26T02:09:35;5.38;;;4.47;;
79539;SDS011;68991;52.122;5.406;2023-06-26T02:12:02;4.78;;;4.28;;
79539;SDS011;68991;52.122;5.406;2023-06-26T02:14:28;5.25;;;4.43;;
79539;SDS011;68991;52.122;5.406;2023-06-26T02:16:55;4.43;;;4.00;;
79539;SDS011;68991;52.122;5.406;2023-06-26T02:19:22;5.28;;;3.80;;
79539;SDS011;68991;52.122;5.406;2023-06-26T02:21:48;4.43;;;3.40;;
79539;SDS011;68991;52.122;5.406;2023-06-26T02:24:15;5.20;;;4.70;;
79539;SDS011;68991;52.122;5.406;2023-06-26T02:26:42;5.10;;;4.43;;
79539;SDS011;68991;52.122;5.406;2023-06-26T02:29:08;4.97;;;4.20;;
79539;SDS011;68991;52.122;5.406;2023-06-26T02:31:35;4.93;;;4.18;;
79539;SDS011;68991;52.122;5.406;2023-06-26T02:34:02;5.50;;;4.38;;
79539;SDS011;68991;52.122;5.406;2023-06-26T02:36:28;4.97;;;4.10;;
79539;SDS011;68991;52.122;5.406;2023-06-26T02:38:55;5.68;;;3.80;;
79539;SDS011;68991;52.122;5.406;2023-06-26T02:41:21;5.65;;;4.57;;
79539;SDS011;68991;52.122;5.406;2023-06-26T02:43:48;4.93;;;3.90;;
79539;SDS011;68991;52.122;5.406;2023-06-26T02:46:14;5.80;;;4.18;;
79539;SDS011;68991;52.122;5.406;2023-06-26T02:48:41;6.72;;;4.20;;
79539;SDS011;68991;52.122;5.406;2023-06-26T02:51:07;5.30;;;3.95;;
79539;SDS011;68991;52.122;5.406;2023-06-26T02:53:34;5.03;;;4.07;;
79539;SDS011;68991;52.122;5.406;2023-06-26T02:56:00;4.97;;;3.85;;
79539;SDS011;68991;52.122;5.406;2023-06-26T02:58:27;5.00;;;3.90;;
79539;SDS011;68991;52.122;5.406;2023-06-26T03:00:54;6.00;;;4.00;;
79539;SDS011;68991;52.122;5.406;2023-06-26T03:03:20;6.18;;;3.80;;
79539;SDS011;68991;52.122;5.406;2023-06-26T03:05:47;6.97;;;4.15;;
79539;SDS011;68991;52.122;5.406;2023-06-26T03:08:13;5.22;;;4.07;;
79539;SDS011;68991;52.122;5.406;2023-06-26T03:10:40;5.05;;;3.75;;
79539;SDS011;68991;52.122;5.406;2023-06-26T03:13:07;5.05;;;3.53;;
79539;SDS011;68991;52.122;5.406;2023-06-26T03:15:33;4.85;;;3.55;;
79539;SDS011;68991;52.122;5.406;2023-06-26T03:18:00;4.22;;;3.35;;
79539;SDS011;68991;52.122;5.406;2023-06-26T03:20:26;6.43;;;3.30;;
79539;SDS011;68991;52.122;5.406;2023-06-26T03:22:53;6.57;;;3.70;;
79539;SDS011;68991;52.122;5.406;2023-06-26T03:25:19;4.20;;;3.38;;
79539;SDS011;68991;52.122;5.406;2023-06-26T03:27:46;5.95;;;3.63;;
79539;SDS011;68991;52.122;5.406;2023-06-26T03:30:12;4.22;;;3.47;;
79539;SDS011;68991;52.122;5.406;2023-06-26T03:32:39;4.57;;;2.95;;
79539;SDS011;68991;52.122;5.406;2023-06-26T03:35:05;4.28;;;3.00;;
79539;SDS011;68991;52.122;5.406;2023-06-26T03:37:32;4.78;;;3.42;;
79539;SDS011;68991;52.122;5.406;2023-06-26T03:39:59;4.47;;;3.25;;
79539;SDS011;68991;52.122;5.406;2023-06-26T03:42:25;5.30;;;3.25;;
79539;SDS011;68991;52.122;5.406;2023-06-26T03:44:52;6.05;;;3.38;;
79539;SDS011;68991;52.122;5.406;2023-06-26T03:47:18;7.05;;;3.33;;
79539;SDS011;68991;52.122;5.406;2023-06-26T03:49:45;4.63;;;3.20;;
79539;SDS011;68991;52.122;5.406;2023-06-26T03:52:11;4.22;;;3.47;;
79539;SDS011;68991;52.122;5.406;2023-06-26T03:54:38;5.03;;;3.03;;
79539;SDS011;68991;52.122;5.406;2023-06-26T03:57:04;5.10;;;2.60;;
79539;SDS011;68991;52.122;5.406;2023-06-26T03:59:31;5.47;;;3.30;;
79539;SDS011;68991;52.122;5.406;2023-06-26T04:01:57;7.07;;;3.53;;
79539;SDS011;68991;52.122;5.406;2023-06-26T04:04:24;6.35;;;3.55;;
79539;SDS011;68991;52.122;5.406;2023-06-26T04:06:50;5.22;;;3.08;;
79539;SDS011;68991;52.122;5.406;2023-06-26T04:09:17;6.50;;;3.10;;
79539;SDS011;68991;52.122;5.406;2023-06-26T04:11:43;7.53;;;2.97;;
79539;SDS011;68991;52.122;5.406;2023-06-26T04:14:10;7.28;;;2.92;;
79539;SDS011;68991;52.122;5.406;2023-06-26T04:16:36;7.18;;;2.88;;
79539;SDS011;68991;52.122;5.406;2023-06-26T04:19:03;5.90;;;3.30;;
79539;SDS011;68991;52.122;5.406;2023-06-26T04:21:31;9.20;;;3.15;;
79539;SDS011;68991;52.122;5.406;2023-06-26T04:23:57;10.18;;;3.50;;
79539;SDS011;68991;52.122;5.406;2023-06-26T04:26:23;6.85;;;3.15;;
79539;SDS011;68991;52.122;5.406;2023-06-26T04:28:50;7.07;;;3.22;;
79539;SDS011;68991;52.122;5.406;2023-06-26T04:31:17;5.50;;;3.00;;
79539;SDS011;68991;52.122;5.406;2023-06-26T04:33:44;9.05;;;3.35;;
79539;SDS011;68991;52.122;5.406;2023-06-26T04:36:10;7.07;;;3.50;;
79539;SDS011;68991;52.122;5.406;2023-06-26T04:38:37;7.22;;;3.30;;
79539;SDS011;68991;52.122;5.406;2023-06-26T04:41:04;4.88;;;2.63;;
79539;SDS011;68991;52.122;5.406;2023-06-26T04:43:30;8.63;;;3.45;;
79539;SDS011;68991;52.122;5.406;2023-06-26T04:45:56;7.78;;;3.38;;
79539;SDS011;68991;52.122;5.406;2023-06-26T04:48:23;8.20;;;2.78;;
79539;SDS011;68991;52.122;5.406;2023-06-26T04:50:49;6.00;;;2.83;;
79539;SDS011;68991;52.122;5.406;2023-06-26T04:53:20;8.82;;;3.35;;
79539;SDS011;68991;52.122;5.406;2023-06-26T04:55:48;6.63;;;3.55;;
79539;SDS011;68991;52.122;5.406;2023-06-26T04:58:16;6.75;;;3.15;;
79539;SDS011;68991;52.122;5.406;2023-06-26T05:00:42;8.00;;;2.80;;
79539;SDS011;68991;52.122;5.406;2023-06-26T05:03:10;6.68;;;3.20;;
79539;SDS011;68991;52.122;5.406;2023-06-26T05:05:38;8.27;;;3.22;;
79539;SDS011;68991;52.122;5.406;2023-06-26T05:08:15;7.13;;;2.85;;
79539;SDS011;68991;52.122;5.406;2023-06-26T05:10:43;8.15;;;2.53;;
79539;SDS011;68991;52.122;5.406;2023-06-26T05:13:10;12.10;;;2.80;;
79539;SDS011;68991;52.122;5.406;2023-06-26T05:15:36;6.50;;;3.03;;
79539;SDS011;68991;52.122;5.406;2023-06-26T05:18:03;7.13;;;2.70;;
79539;SDS011;68991;52.122;5.406;2023-06-26T05:20:30;5.80;;;2.85;;
79539;SDS011;68991;52.122;5.406;2023-06-26T05:22:56;7.32;;;2.85;;
79539;SDS011;68991;52.122;5.406;2023-06-26T05:25:24;6.70;;;2.88;;
79539;SDS011;68991;52.122;5.406;2023-06-26T05:27:51;6.90;;;2.17;;
79539;SDS011;68991;52.122;5.406;2023-06-26T05:30:18;4.38;;;2.83;;
79539;SDS011;68991;52.122;5.406;2023-06-26T05:32:45;7.68;;;3.08;;
79539;SDS011;68991;52.122;5.406;2023-06-26T05:35:13;5.63;;;2.45;;
79539;SDS011;68991;52.122;5.406;2023-06-26T05:37:41;8.63;;;3.30;;
79539;SDS011;68991;52.122;5.406;2023-06-26T05:40:08;6.22;;;2.80;;
79539;SDS011;68991;52.122;5.406;2023-06-26T05:42:35;4.47;;;2.38;;
79539;SDS011;68991;52.122;5.406;2023-06-26T05:45:02;5.82;;;2.10;;
79539;SDS011;68991;52.122;5.406;2023-06-26T05:47:29;3.80;;;2.22;;
79539;SDS011;68991;52.122;5.406;2023-06-26T05:49:55;4.43;;;2.58;;
79539;SDS011;68991;52.122;5.406;2023-06-26T05:52:22;4.20;;;2.33;;
79539;SDS011;68991;52.122;5.406;2023-06-26T05:54:49;4.57;;;2.00;;
79539;SDS011;68991;52.122;5.406;2023-06-26T05:57:15;4.32;;;1.98;;
79539;SDS011;68991;52.122;5.406;2023-06-26T05:59:42;5.68;;;2.30;;
79539;SDS011;68991;52.122;5.406;2023-06-26T06:02:09;4.45;;;1.80;;
79539;SDS011;68991;52.122;5.406;2023-06-26T06:04:36;2.75;;;1.80;;
79539;SDS011;68991;52.122;5.406;2023-06-26T06:07:03;4.90;;;2.20;;
79539;SDS011;68991;52.122;5.406;2023-06-26T06:09:30;3.72;;;1.98;;
79539;SDS011;68991;52.122;5.406;2023-06-26T06:11:58;4.15;;;2.22;;
79539;SDS011;68991;52.122;5.406;2023-06-26T06:14:25;5.43;;;1.90;;
79539;SDS011;68991;52.122;5.406;2023-06-26T06:16:51;3.75;;;2.30;;
79539;SDS011;68991;52.122;5.406;2023-06-26T06:19:18;5.50;;;2.33;;
79539;SDS011;68991;52.122;5.406;2023-06-26T06:21:44;3.85;;;2.17;;
79539;SDS011;68991;52.122;5.406;2023-06-26T06:24:11;4.45;;;2.28;;
79539;SDS011;68991;52.122;5.406;2023-06-26T06:26:37;5.50;;;2.30;;
79539;SDS011;68991;52.122;5.406;2023-06-26T06:29:04;5.45;;;1.92;;
79539;SDS011;68991;52.122;5.406;2023-06-26T06:31:30;4.50;;;1.95;;
79539;SDS011;68991;52.122;5.406;2023-06-26T06:33:57;5.22;;;2.00;;
79539;SDS011;68991;52.122;5.406;2023-06-26T06:36:23;3.25;;;2.00;;
79539;SDS011;68991;52.122;5.406;2023-06-26T06:38:50;3.22;;;2.05;;
79539;SDS011;68991;52.122;5.406;2023-06-26T06:41:16;3.55;;;2.38;;
79539;SDS011;68991;52.122;5.406;2023-06-26T06:43:43;3.80;;;2.13;;
79539;SDS011;68991;52.122;5.406;2023-06-26T06:46:09;7.25;;;2.03;;
79539;SDS011;68991;52.122;5.406;2023-06-26T06:48:36;4.55;;;1.88;;
79539;SDS011;68991;52.122;5.406;2023-06-26T06:51:02;3.45;;;2.00;;
79539;SDS011;68991;52.122;5.406;2023-06-26T06:53:30;3.72;;;1.77;;
79539;SDS011;68991;52.122;5.406;2023-06-26T06:55:57;4.78;;;1.85;;
79539;SDS011;68991;52.122;5.406;2023-06-26T06:58:24;4.22;;;2.10;;
79539;SDS011;68991;52.122;5.406;2023-06-26T07:00:50;3.83;;;2.00;;
79539;SDS011;68991;52.122;5.406;2023-06-26T07:03:18;4.15;;;1.95;;
79539;SDS011;68991;52.122;5.406;2023-06-26T07:05:44;3.10;;;1.67;;
79539;SDS011;68991;52.122;5.406;2023-06-26T07:08:11;2.80;;;1.90;;
79539;SDS011;68991;52.122;5.406;2023-06-26T07:10:37;3.17;;;1.80;;
79539;SDS011;68991;52.122;5.406;2023-06-26T07:13:05;4.03;;;1.83;;
79539;SDS011;68991;52.122;5.406;2023-06-26T07:15:32;3.47;;;2.42;;
79539;SDS011;68991;52.122;5.406;2023-06-26T07:17:58;3.85;;;1.80;;
79539;SDS011;68991;52.122;5.406;2023-06-26T07:20:25;3.72;;;2.08;;
79539;SDS011;68991;52.122;5.406;2023-06-26T07:22:52;3.70;;;1.85;;
79539;SDS011;68991;52.122;5.406;2023-06-26T07:25:19;3.15;;;1.90;;
79539;SDS011;68991;52.122;5.406;2023-06-26T07:27:45;2.75;;;1.70;;
79539;SDS011;68991;52.122;5.406;2023-06-26T07:30:12;3.70;;;1.73;;
79539;SDS011;68991;52.122;5.406;2023-06-26T07:32:39;2.83;;;1.60;;
79539;SDS011;68991;52.122;5.406;2023-06-26T07:35:09;3.22;;;1.80;;
79539;SDS011;68991;52.122;5.406;2023-06-26T07:37:35;2.90;;;1.92;;
79539;SDS011;68991;52.122;5.406;2023-06-26T07:40:02;4.28;;;2.15;;
79539;SDS011;68991;52.122;5.406;2023-06-26T07:42:29;2.80;;;1.83;;
79539;SDS011;68991;52.122;5.406;2023-06-26T07:44:55;2.97;;;1.67;;
79539;SDS011;68991;52.122;5.406;2023-06-26T07:47:22;4.00;;;2.20;;
79539;SDS011;68991;52.122;5.406;2023-06-26T07:49:48;2.90;;;1.90;;
79539;SDS011;68991;52.122;5.406;2023-06-26T07:52:15;3.75;;;1.80;;
79539;SDS011;68991;52.122;5.406;2023-06-26T07:54:42;2.90;;;1.60;;
79539;SDS011;68991;52.122;5.406;2023-06-26T07:57:09;2.20;;;1.73;;
79539;SDS011;68991;52.122;5.406;2023-06-26T07:59:37;2.35;;;1.58;;
79539;SDS011;68991;52.122;5.406;2023-06-26T08:02:03;5.13;;;1.70;;
79539;SDS011;68991;52.122;5.406;2023-06-26T08:04:30;3.10;;;1.77;;
79539;SDS011;68991;52.122;5.406;2023-06-26T08:06:59;3.35;;;1.70;;
79539;SDS011;68991;52.122;5.406;2023-06-26T08:09:27;2.17;;;1.45;;
79539;SDS011;68991;52.122;5.406;2023-06-26T08:11:55;2.95;;;1.73;;
79539;SDS011;68991;52.122;5.406;2023-06-26T08:14:22;3.03;;;1.90;;
79539;SDS011;68991;52.122;5.406;2023-06-26T08:16:49;2.15;;;1.48;;
79539;SDS011;68991;52.122;5.406;2023-06-26T08:19:16;4.80;;;1.90;;
79539;SDS011;68991;52.122;5.406;2023-06-26T08:21:43;2.45;;;1.70;;
79539;SDS011;68991;52.122;5.406;2023-06-26T08:24:11;2.65;;;1.50;;
79539;SDS011;68991;52.122;5.406;2023-06-26T08:26:39;3.65;;;1.85;;
79539;SDS011;68991;52.122;5.406;2023-06-26T08:29:06;2.72;;;1.60;;
79539;SDS011;68991;52.122;5.406;2023-06-26T08:31:38;2.95;;;1.60;;
79539;SDS011;68991;52.122;5.406;2023-06-26T08:34:06;3.28;;;2.00;;
79539;SDS011;68991;52.122;5.406;2023-06-26T08:36:33;2.50;;;1.50;;
79539;SDS011;68991;52.122;5.406;2023-06-26T08:39:00;3.35;;;2.10;;
79539;SDS011;68991;52.122;5.406;2023-06-26T08:41:26;2.92;;;1.83;;
79539;SDS011;68991;52.122;5.406;2023-06-26T08:43:53;4.68;;;1.92;;
79539;SDS011;68991;52.122;5.406;2023-06-26T08:46:20;2.83;;;1.70;;
79539;SDS011;68991;52.122;5.406;2023-06-26T08:48:54;3.20;;;2.10;;
79539;SDS011;68991;52.122;5.406;2023-06-26T08:51:23;4.07;;;1.85;;
79539;SDS011;68991;52.122;5.406;2023-06-26T08:53:56;5.07;;;2.08;;
79539;SDS011;68991;52.122;5.406;2023-06-26T08:56:25;2.50;;;1.60;;
79539;SDS011;68991;52.122;5.406;2023-06-26T08:58:57;3.05;;;1.63;;
79539;SDS011;68991;52.122;5.406;2023-06-26T09:01:24;5.68;;;1.85;;
79539;SDS011;68991;52.122;5.406;2023-06-26T09:03:51;3.95;;;1.83;;
79539;SDS011;68991;52.122;5.406;2023-06-26T09:06:18;2.55;;;1.58;;
79539;SDS011;68991;52.122;5.406;2023-06-26T09:08:45;2.30;;;1.75;;
79539;SDS011;68991;52.122;5.406;2023-06-26T09:11:11;3.90;;;1.65;;
79539;SDS011;68991;52.122;5.406;2023-06-26T09:13:39;2.42;;;1.55;;
79539;SDS011;68991;52.122;5.406;2023-06-26T09:16:06;2.83;;;1.73;;
79539;SDS011;68991;52.122;5.406;2023-06-26T09:18:34;3.85;;;1.52;;
79539;SDS011;68991;52.122;5.406;2023-06-26T09:21:08;2.20;;;1.35;;
79539;SDS011;68991;52.122;5.406;2023-06-26T09:23:35;2.05;;;1.50;;
79539;SDS011;68991;52.122;5.406;2023-06-26T09:26:03;2.63;;;1.60;;
79539;SDS011;68991;52.122;5.406;2023-06-26T09:28:31;2.67;;;1.52;;
79539;SDS011;68991;52.122;5.406;2023-06-26T09:31:03;2.90;;;1.42;;
79539;SDS011;68991;52.122;5.406;2023-06-26T09:33:37;2.63;;;1.50;;
79539;SDS011;68991;52.122;5.406;2023-06-26T09:36:05;3.40;;;1.70;;
79539;SDS011;68991;52.122;5.406;2023-06-26T09:38:38;3.55;;;1.45;;
79539;SDS011;68991;52.122;5.406;2023-06-26T09:41:04;5.25;;;1.73;;
79539;SDS011;68991;52.122;5.406;2023-06-26T09:43:31;4.10;;;1.35;;
79539;SDS011;68991;52.122;5.406;2023-06-26T09:45:58;2.67;;;1.58;;
79539;SDS011;68991;52.122;5.406;2023-06-26T09:48:27;3.45;;;1.77;;
79539;SDS011;68991;52.122;5.406;2023-06-26T09:50:54;2.40;;;1.38;;
79539;SDS011;68991;52.122;5.406;2023-06-26T09:53:38;2.55;;;1.48;;
79539;SDS011;68991;52.122;5.406;2023-06-26T09:56:05;2.72;;;1.30;;
79539;SDS011;68991;52.122;5.406;2023-06-26T09:58:33;2.28;;;1.40;;
79539;SDS011;68991;52.122;5.406;2023-06-26T10:01:02;2.85;;;1.65;;
79539;SDS011;68991;52.122;5.406;2023-06-26T10:03:29;2.67;;;1.50;;
79539;SDS011;68991;52.122;5.406;2023-06-26T10:05:56;1.85;;;1.30;;
79539;SDS011;68991;52.122;5.406;2023-06-26T10:08:23;1.77;;;1.30;;
79539;SDS011;68991;52.122;5.406;2023-06-26T10:10:50;2.40;;;1.30;;
79539;SDS011;68991;52.122;5.406;2023-06-26T10:13:22;2.58;;;1.40;;
79539;SDS011;68991;52.122;5.406;2023-06-26T10:15:51;3.67;;;1.42;;
79539;SDS011;68991;52.122;5.406;2023-06-26T10:18:18;2.45;;;1.58;;
79539;SDS011;68991;52.122;5.406;2023-06-26T10:20:48;3.17;;;1.50;;
79539;SDS011;68991;52.122;5.406;2023-06-26T10:23:16;2.78;;;1.38;;
79539;SDS011;68991;52.122;5.406;2023-06-26T10:25:46;2.33;;;1.20;;
79539;SDS011;68991;52.122;5.406;2023-06-26T10:28:15;2.38;;;1.30;;
79539;SDS011;68991;52.122;5.406;2023-06-26T10:30:43;2.13;;;1.42;;
79539;SDS011;68991;52.122;5.406;2023-06-26T10:33:10;2.08;;;1.20;;
79539;SDS011;68991;52.122;5.406;2023-06-26T10:35:44;1.85;;;1.30;;
79539;SDS011;68991;52.122;5.406;2023-06-26T10:38:11;2.22;;;1.30;;
79539;SDS011;68991;52.122;5.406;2023-06-26T10:40:42;3.60;;;1.38;;
79539;SDS011;68991;52.122;5.406;2023-06-26T10:43:14;2.83;;;1.38;;
79539;SDS011;68991;52.122;5.406;2023-06-26T10:45:45;2.95;;;1.55;;
79539;SDS011;68991;52.122;5.406;2023-06-26T10:48:18;2.75;;;1.10;;
79539;SDS011;68991;52.122;5.406;2023-06-26T10:50:48;2.10;;;1.27;;
79539;SDS011;68991;52.122;5.406;2023-06-26T10:53:16;2.53;;;1.35;;
79539;SDS011;68991;52.122;5.406;2023-06-26T10:55:56;2.90;;;1.67;;
79539;SDS011;68991;52.122;5.406;2023-06-26T10:58:59;2.05;;;1.30;;
79539;SDS011;68991;52.122;5.406;2023-06-26T11:01:40;3.53;;;1.30;;
79539;SDS011;68991;52.122;5.406;2023-06-26T11:04:08;2.75;;;1.50;;
79539;SDS011;68991;52.122;5.406;2023-06-26T11:06:37;3.22;;;1.50;;
79539;SDS011;68991;52.122;5.406;2023-06-26T11:09:10;2.20;;;1.10;;
79539;SDS011;68991;52.122;5.406;2023-06-26T11:14:25;3.65;;;1.40;;
79539;SDS011;68991;52.122;5.406;2023-06-26T11:16:56;2.00;;;1.17;;
79539;SDS011;68991;52.122;5.406;2023-06-26T11:19:24;2.40;;;1.25;;
79539;SDS011;68991;52.122;5.406;2023-06-26T11:21:57;2.80;;;1.23;;
79539;SDS011;68991;52.122;5.406;2023-06-26T11:24:25;1.92;;;1.23;;
79539;SDS011;68991;52.122;5.406;2023-06-26T11:26:52;3.03;;;1.50;;
79539;SDS011;68991;52.122;5.406;2023-06-26T11:29:19;2.80;;;1.25;;
79539;SDS011;68991;52.122;5.406;2023-06-26T11:31:45;1.95;;;1.13;;
79539;SDS011;68991;52.122;5.406;2023-06-26T11:34:12;2.00;;;1.20;;
79539;SDS011;68991;52.122;5.406;2023-06-26T11:36:41;2.72;;;1.17;;
79539;SDS011;68991;52.122;5.406;2023-06-26T11:39:09;2.17;;;1.00;;
79539;SDS011;68991;52.122;5.406;2023-06-26T11:41:37;1.90;;;1.20;;
79539;SDS011;68991;52.122;5.406;2023-06-26T11:44:05;2.50;;;1.00;;
79539;SDS011;68991;52.122;5.406;2023-06-26T11:46:40;1.65;;;1.17;;
79539;SDS011;68991;52.122;5.406;2023-06-26T11:49:06;1.55;;;1.20;;
79539;SDS011;68991;52.122;5.406;2023-06-26T11:51:34;2.75;;;1.10;;
79539;SDS011;68991;52.122;5.406;2023-06-26T11:54:02;1.85;;;1.00;;
79539;SDS011;68991;52.122;5.406;2023-06-26T11:56:30;2.95;;;1.20;;
79539;SDS011;68991;52.122;5.406;2023-06-26T12:01:41;2.00;;;1.17;;
79539;SDS011;68991;52.122;5.406;2023-06-26T12:04:11;1.95;;;1.10;;
79539;SDS011;68991;52.122;5.406;2023-06-26T12:06:41;1.50;;;1.20;;
79539;SDS011;68991;52.122;5.406;2023-06-26T12:09:11;1.50;;;0.95;;
79539;SDS011;68991;52.122;5.406;2023-06-26T12:11:43;1.60;;;1.05;;
79539;SDS011;68991;52.122;5.406;2023-06-26T12:14:11;2.33;;;1.27;;
79539;SDS011;68991;52.122;5.406;2023-06-26T12:16:40;4.20;;;1.10;;
79539;SDS011;68991;52.122;5.406;2023-06-26T12:19:07;1.70;;;1.10;;
79539;SDS011;68991;52.122;5.406;2023-06-26T12:24:04;2.13;;;1.20;;
79539;SDS011;68991;52.122;5.406;2023-06-26T12:26:31;2.20;;;1.10;;
79539;SDS011;68991;52.122;5.406;2023-06-26T12:29:07;1.60;;;1.08;;
79539;SDS011;68991;52.122;5.406;2023-06-26T12:31:35;1.40;;;1.00;;
79539;SDS011;68991;52.122;5.406;2023-06-26T12:34:08;4.25;;;1.10;;
79539;SDS011;68991;52.122;5.406;2023-06-26T12:36:44;1.60;;;1.10;;
79539;SDS011;68991;52.122;5.406;2023-06-26T12:39:13;1.50;;;0.88;;
79539;SDS011;68991;52.122;5.406;2023-06-26T12:42:00;1.25;;;0.90;;
79539;SDS011;68991;52.122;5.406;2023-06-26T12:44:31;4.63;;;1.33;;
79539;SDS011;68991;52.122;5.406;2023-06-26T12:47:01;2.90;;;0.90;;
79539;SDS011;68991;52.122;5.406;2023-06-26T12:49:39;1.75;;;0.80;;
79539;SDS011;68991;52.122;5.406;2023-06-26T12:52:08;1.00;;;0.60;;
79539;SDS011;68991;52.122;5.406;2023-06-26T12:54:37;2.22;;;0.90;;
79539;SDS011;68991;52.122;5.406;2023-06-26T12:57:05;1.83;;;0.90;;
79539;SDS011;68991;52.122;5.406;2023-06-26T12:59:33;2.50;;;1.23;;
79539;SDS011;68991;52.122;5.406;2023-06-26T13:02:00;1.75;;;0.90;;
79539;SDS011;68991;52.122;5.406;2023-06-26T13:04:27;1.63;;;0.80;;
79539;SDS011;68991;52.122;5.406;2023-06-26T13:06:54;1.88;;;1.30;;
79539;SDS011;68991;52.122;5.406;2023-06-26T13:09:22;2.92;;;1.00;;
79539;SDS011;68991;52.122;5.406;2023-06-26T13:11:49;1.85;;;1.02;;
79539;SDS011;68991;52.122;5.406;2023-06-26T13:14:16;2.15;;;1.23;;
79539;SDS011;68991;52.122;5.406;2023-06-26T13:16:43;1.92;;;0.80;;
79539;SDS011;68991;52.122;5.406;2023-06-26T13:19:10;2.55;;;1.00;;
79539;SDS011;68991;52.122;5.406;2023-06-26T13:21:36;2.50;;;1.00;;
79539;SDS011;68991;52.122;5.406;2023-06-26T13:24:03;1.92;;;1.05;;
79539;SDS011;68991;52.122;5.406;2023-06-26T13:26:30;1.38;;;0.93;;
79539;SDS011;68991;52.122;5.406;2023-06-26T13:29:03;3.50;;;1.02;;
79539;SDS011;68991;52.122;5.406;2023-06-26T13:31:29;1.75;;;0.90;;
79539;SDS011;68991;52.122;5.406;2023-06-26T13:34:00;1.40;;;0.90;;
79539;SDS011;68991;52.122;5.406;2023-06-26T13:36:29;3.20;;;0.90;;
79539;SDS011;68991;52.122;5.406;2023-06-26T13:38:56;3.47;;;1.00;;
79539;SDS011;68991;52.122;5.406;2023-06-26T13:41:23;1.42;;;0.90;;
79539;SDS011;68991;52.122;5.406;2023-06-26T13:43:50;2.38;;;0.93;;
79539;SDS011;68991;52.122;5.406;2023-06-26T13:46:17;3.35;;;1.20;;
79539;SDS011;68991;52.122;5.406;2023-06-26T13:48:44;1.60;;;0.82;;
79539;SDS011;68991;52.122;5.406;2023-06-26T13:51:11;1.90;;;1.08;;
79539;SDS011;68991;52.122;5.406;2023-06-26T13:53:38;2.50;;;1.17;;
79539;SDS011;68991;52.122;5.406;2023-06-26T13:56:05;5.60;;;1.05;;
79539;SDS011;68991;52.122;5.406;2023-06-26T13:58:34;3.75;;;1.17;;
79539;SDS011;68991;52.122;5.406;2023-06-26T14:01:01;1.65;;;0.85;;
79539;SDS011;68991;52.122;5.406;2023-06-26T14:03:27;2.00;;;0.90;;
79539;SDS011;68991;52.122;5.406;2023-06-26T14:05:54;2.33;;;1.10;;
79539;SDS011;68991;52.122;5.406;2023-06-26T14:08:21;2.38;;;0.80;;
79539;SDS011;68991;52.122;5.406;2023-06-26T14:10:48;1.40;;;0.80;;
79539;SDS011;68991;52.122;5.406;2023-06-26T14:13:14;5.85;;;0.80;;
79539;SDS011;68991;52.122;5.406;2023-06-26T14:15:42;2.65;;;0.70;;
79539;SDS011;68991;52.122;5.406;2023-06-26T14:18:09;3.28;;;0.98;;
79539;SDS011;68991;52.122;5.406;2023-06-26T14:20:35;4.32;;;1.20;;
79539;SDS011;68991;52.122;5.406;2023-06-26T14:23:03;2.45;;;1.00;;
79539;SDS011;68991;52.122;5.406;2023-06-26T14:25:30;4.88;;;0.90;;
79539;SDS011;68991;52.122;5.406;2023-06-26T14:27:57;2.95;;;1.15;;
79539;SDS011;68991;52.122;5.406;2023-06-26T14:30:24;2.65;;;0.80;;
79539;SDS011;68991;52.122;5.406;2023-06-26T14:32:51;3.00;;;0.90;;
79539;SDS011;68991;52.122;5.406;2023-06-26T14:35:17;1.70;;;1.00;;
79539;SDS011;68991;52.122;5.406;2023-06-26T14:37:44;2.40;;;0.88;;
79539;SDS011;68991;52.122;5.406;2023-06-26T14:40:10;3.17;;;0.80;;
79539;SDS011;68991;52.122;5.406;2023-06-26T14:42:38;4.85;;;1.23;;
79539;SDS011;68991;52.122;5.406;2023-06-26T14:45:05;5.20;;;1.10;;
79539;SDS011;68991;52.122;5.406;2023-06-26T14:47:32;4.45;;;0.85;;
79539;SDS011;68991;52.122;5.406;2023-06-26T14:49:59;1.50;;;0.85;;
79539;SDS011;68991;52.122;5.406;2023-06-26T14:52:26;1.30;;;0.88;;
79539;SDS011;68991;52.122;5.406;2023-06-26T14:54:52;4.25;;;1.10;;
79539;SDS011;68991;52.122;5.406;2023-06-26T14:57:19;2.88;;;0.88;;
79539;SDS011;68991;52.122;5.406;2023-06-26T14:59:45;4.57;;;1.08;;
79539;SDS011;68991;52.122;5.406;2023-06-26T15:02:12;1.45;;;0.85;;
79539;SDS011;68991;52.122;5.406;2023-06-26T15:04:38;2.58;;;1.05;;